sensor_id;sensor_type;location;lat;lon;timestamp;temperature;humidity
73939;DHT22;62291;47.554;8.504;2024-01-30T00:01:45;0.90;99.90
73939;DHT22;62291;47.554;8.504;2024-01-30T00:04:10;0.90;99.90
73939;DHT22;62291;47.554;8.504;2024-01-30T00:06:36;0.90;99.90
73939;DHT22;62291;47.554;8.504;2024-01-30T00:09:01;0.90;99.90
73939;DHT22;62291;47.554;8.504;2024-01-30T00:11:27;0.90;99.90
73939;DHT22;62291;47.554;8.504;2024-01-30T00:13:54;0.90;99.90
73939;DHT22;62291;47.554;8.504;2024-01-30T00:16:22;0.90;99.90
73939;DHT22;62291;47.554;8.504;2024-01-30T00:18:52;1.00;99.90
73939;DHT22;62291;47.554;8.504;2024-01-30T00:21:19;0.90;99.90
73939;DHT22;62291;47.554;8.504;2024-01-30T00:23:45;0.80;99.90
73939;DHT22;62291;47.554;8.504;2024-01-30T00:26:11;0.60;99.90
73939;DHT22;62291;47.554;8.504;2024-01-30T00:28:38;0.60;99.90
73939;DHT22;62291;47.554;8.504;2024-01-30T00:31:07;0.60;99.90
73939;DHT22;62291;47.554;8.504;2024-01-30T00:33:33;0.70;99.90
73939;DHT22;62291;47.554;8.504;2024-01-30T00:35:58;0.80;99.90
73939;DHT22;62291;47.554;8.504;2024-01-30T00:38:24;0.80;99.90
73939;DHT22;62291;47.554;8.504;2024-01-30T00:40:50;0.80;99.90
73939;DHT22;62291;47.554;8.504;2024-01-30T00:43:16;0.80;99.90
73939;DHT22;62291;47.554;8.504;2024-01-30T00:45:43;0.90;99.90
73939;DHT22;62291;47.554;8.504;2024-01-30T00:48:09;0.90;99.90
73939;DHT22;62291;47.554;8.504;2024-01-30T00:50:34;1.00;99.90
73939;DHT22;62291;47.554;8.504;2024-01-30T00:53:00;0.90;99.90
73939;DHT22;62291;47.554;8.504;2024-01-30T00:55:25;0.80;99.90
73939;DHT22;62291;47.554;8.504;2024-01-30T00:57:51;0.90;99.90
73939;DHT22;62291;47.554;8.504;2024-01-30T01:00:17;0.80;99.90
73939;DHT22;62291;47.554;8.504;2024-01-30T01:02:43;0.70;99.90
73939;DHT22;62291;47.554;8.504;2024-01-30T01:05:08;0.60;99.90
73939;DHT22;62291;47.554;8.504;2024-01-30T01:07:34;0.60;99.90
73939;DHT22;62291;47.554;8.504;2024-01-30T01:10:00;0.40;99.90
73939;DHT22;62291;47.554;8.504;2024-01-30T01:12:25;0.30;99.90
73939;DHT22;62291;47.554;8.504;2024-01-30T01:14:51;0.40;99.90
73939;DHT22;62291;47.554;8.504;2024-01-30T01:17:17;0.30;99.90
73939;DHT22;62291;47.554;8.504;2024-01-30T01:19:44;0.30;99.90
73939;DHT22;62291;47.554;8.504;2024-01-30T01:22:09;0.40;99.90
73939;DHT22;62291;47.554;8.504;2024-01-30T01:24:36;0.50;99.90
73939;DHT22;62291;47.554;8.504;2024-01-30T01:27:01;0.50;99.90
73939;DHT22;62291;47.554;8.504;2024-01-30T01:29:27;0.40;99.90
73939;DHT22;62291;47.554;8.504;2024-01-30T01:31:56;0.40;99.90
73939;DHT22;62291;47.554;8.504;2024-01-30T01:34:22;0.30;99.90
73939;DHT22;62291;47.554;8.504;2024-01-30T01:36:48;0.20;99.90
73939;DHT22;62291;47.554;8.504;2024-01-30T01:39:14;0.10;99.90
73939;DHT22;62291;47.554;8.504;2024-01-30T01:41:39;0.10;99.90
73939;DHT22;62291;47.554;8.504;2024-01-30T01:44:05;0.10;99.90
73939;DHT22;62291;47.554;8.504;2024-01-30T01:46:33;0.20;99.90
73939;DHT22;62291;47.554;8.504;2024-01-30T01:48:59;0.10;99.90
73939;DHT22;62291;47.554;8.504;2024-01-30T01:51:27;0.10;99.90
73939;DHT22;62291;47.554;8.504;2024-01-30T01:53:57;0.10;99.90
73939;DHT22;62291;47.554;8.504;2024-01-30T01:56:24;0.10;99.90
73939;DHT22;62291;47.554;8.504;2024-01-30T01:58:51;0.20;99.90
73939;DHT22;62291;47.554;8.504;2024-01-30T02:01:21;0.10;99.90
73939;DHT22;62291;47.554;8.504;2024-01-30T02:03:47;0.20;99.90
73939;DHT22;62291;47.554;8.504;2024-01-30T02:06:16;0.30;99.90
73939;DHT22;62291;47.554;8.504;2024-01-30T02:08:42;0.30;99.90
73939;DHT22;62291;47.554;8.504;2024-01-30T02:11:08;0.30;99.90
73939;DHT22;62291;47.554;8.504;2024-01-30T02:13:35;0.20;99.90
73939;DHT22;62291;47.554;8.504;2024-01-30T02:16:01;0.20;99.90
73939;DHT22;62291;47.554;8.504;2024-01-30T02:18:27;0.10;99.90
73939;DHT22;62291;47.554;8.504;2024-01-30T02:20:54;0.10;99.90
73939;DHT22;62291;47.554;8.504;2024-01-30T02:23:23;0.10;99.90
73939;DHT22;62291;47.554;8.504;2024-01-30T02:25:50;0.10;99.90
73939;DHT22;62291;47.554;8.504;2024-01-30T02:28:19;0.10;99.90
73939;DHT22;62291;47.554;8.504;2024-01-30T02:30:45;0.10;99.90
73939;DHT22;62291;47.554;8.504;2024-01-30T02:33:12;0.10;99.90
73939;DHT22;62291;47.554;8.504;2024-01-30T02:35:38;0.20;99.90
73939;DHT22;62291;47.554;8.504;2024-01-30T02:38:03;0.10;99.90
73939;DHT22;62291;47.554;8.504;2024-01-30T02:40:30;0.20;99.90
73939;DHT22;62291;47.554;8.504;2024-01-30T02:42:56;0.10;99.90
73939;DHT22;62291;47.554;8.504;2024-01-30T02:45:22;0.10;99.90
73939;DHT22;62291;47.554;8.504;2024-01-30T02:47:47;0.00;99.90
73939;DHT22;62291;47.554;8.504;2024-01-30T02:50:13;0.00;99.90
73939;DHT22;62291;47.554;8.504;2024-01-30T02:52:40;-0.10;99.90
73939;DHT22;62291;47.554;8.504;2024-01-30T02:55:06;-0.20;99.90
73939;DHT22;62291;47.554;8.504;2024-01-30T02:57:32;-0.20;99.90
73939;DHT22;62291;47.554;8.504;2024-01-30T02:59:58;-0.20;99.90
73939;DHT22;62291;47.554;8.504;2024-01-30T03:02:23;-0.30;99.90
73939;DHT22;62291;47.554;8.504;2024-01-30T03:04:49;-0.20;99.90
73939;DHT22;62291;47.554;8.504;2024-01-30T03:07:15;-0.20;99.90
73939;DHT22;62291;47.554;8.504;2024-01-30T03:09:41;-0.20;99.90
73939;DHT22;62291;47.554;8.504;2024-01-30T03:12:10;-0.20;99.90
73939;DHT22;62291;47.554;8.504;2024-01-30T03:14:36;-0.10;99.90
73939;DHT22;62291;47.554;8.504;2024-01-30T03:17:02;-0.10;99.90
73939;DHT22;62291;47.554;8.504;2024-01-30T03:19:28;-0.20;99.90
73939;DHT22;62291;47.554;8.504;2024-01-30T03:21:54;-0.20;99.90
73939;DHT22;62291;47.554;8.504;2024-01-30T03:24:19;-0.20;99.90
73939;DHT22;62291;47.554;8.504;2024-01-30T03:26:45;-0.30;99.90
73939;DHT22;62291;47.554;8.504;2024-01-30T03:29:11;-0.30;99.90
73939;DHT22;62291;47.554;8.504;2024-01-30T03:31:37;-0.30;99.90
73939;DHT22;62291;47.554;8.504;2024-01-30T03:34:03;-0.40;99.90
73939;DHT22;62291;47.554;8.504;2024-01-30T03:36:28;-0.30;99.90
73939;DHT22;62291;47.554;8.504;2024-01-30T03:38:54;-0.40;99.90
73939;DHT22;62291;47.554;8.504;2024-01-30T03:41:19;-0.40;99.90
73939;DHT22;62291;47.554;8.504;2024-01-30T03:43:46;-0.40;99.90
73939;DHT22;62291;47.554;8.504;2024-01-30T03:46:12;-0.40;99.90
73939;DHT22;62291;47.554;8.504;2024-01-30T03:48:38;-0.40;99.90
73939;DHT22;62291;47.554;8.504;2024-01-30T03:51:04;-0.40;99.90
73939;DHT22;62291;47.554;8.504;2024-01-30T03:53:30;-0.40;99.90
73939;DHT22;62291;47.554;8.504;2024-01-30T03:55:56;-0.30;99.90
73939;DHT22;62291;47.554;8.504;2024-01-30T03:58:23;-0.30;99.90
73939;DHT22;62291;47.554;8.504;2024-01-30T04:00:49;-0.30;99.90
73939;DHT22;62291;47.554;8.504;2024-01-30T04:03:15;-0.20;99.90
73939;DHT22;62291;47.554;8.504;2024-01-30T04:05:44;-0.20;99.90
73939;DHT22;62291;47.554;8.504;2024-01-30T04:08:10;-0.20;99.90
73939;DHT22;62291;47.554;8.504;2024-01-30T04:10:36;-0.20;99.90
73939;DHT22;62291;47.554;8.504;2024-01-30T04:13:01;-0.20;99.90
73939;DHT22;62291;47.554;8.504;2024-01-30T04:15:27;-0.20;99.90
73939;DHT22;62291;47.554;8.504;2024-01-30T04:17:57;-0.20;99.90
73939;DHT22;62291;47.554;8.504;2024-01-30T04:20:24;-0.20;99.90
73939;DHT22;62291;47.554;8.504;2024-01-30T04:22:50;-0.20;99.90
73939;DHT22;62291;47.554;8.504;2024-01-30T04:25:15;-0.20;99.90
73939;DHT22;62291;47.554;8.504;2024-01-30T04:27:41;-0.20;99.90
73939;DHT22;62291;47.554;8.504;2024-01-30T04:30:07;-0.30;99.90
73939;DHT22;62291;47.554;8.504;2024-01-30T04:32:33;-0.20;99.90
73939;DHT22;62291;47.554;8.504;2024-01-30T04:34:59;-0.20;99.90
73939;DHT22;62291;47.554;8.504;2024-01-30T04:37:25;-0.20;99.90
73939;DHT22;62291;47.554;8.504;2024-01-30T04:39:51;-0.20;99.90
73939;DHT22;62291;47.554;8.504;2024-01-30T04:42:17;-0.20;99.90
73939;DHT22;62291;47.554;8.504;2024-01-30T04:44:42;-0.20;99.90
73939;DHT22;62291;47.554;8.504;2024-01-30T04:47:08;-0.30;99.90
73939;DHT22;62291;47.554;8.504;2024-01-30T04:49:36;-0.20;99.90
73939;DHT22;62291;47.554;8.504;2024-01-30T04:52:02;-0.20;99.90
73939;DHT22;62291;47.554;8.504;2024-01-30T04:54:28;-0.20;99.90
73939;DHT22;62291;47.554;8.504;2024-01-30T04:56:53;-0.20;99.90
73939;DHT22;62291;47.554;8.504;2024-01-30T04:59:19;-0.30;99.90
73939;DHT22;62291;47.554;8.504;2024-01-30T05:01:45;-0.30;99.90
73939;DHT22;62291;47.554;8.504;2024-01-30T05:04:10;-0.30;99.90
73939;DHT22;62291;47.554;8.504;2024-01-30T05:06:36;-0.30;99.90
73939;DHT22;62291;47.554;8.504;2024-01-30T05:09:02;-0.30;99.90
73939;DHT22;62291;47.554;8.504;2024-01-30T05:11:31;-0.40;99.90
73939;DHT22;62291;47.554;8.504;2024-01-30T05:13:57;-0.40;99.90
73939;DHT22;62291;47.554;8.504;2024-01-30T05:16:22;-0.40;99.90
73939;DHT22;62291;47.554;8.504;2024-01-30T05:18:48;-0.40;99.90
73939;DHT22;62291;47.554;8.504;2024-01-30T05:21:14;-0.40;99.90
73939;DHT22;62291;47.554;8.504;2024-01-30T05:23:39;-0.40;99.90
73939;DHT22;62291;47.554;8.504;2024-01-30T05:26:07;-0.50;99.90
73939;DHT22;62291;47.554;8.504;2024-01-30T05:28:33;-0.50;99.90
73939;DHT22;62291;47.554;8.504;2024-01-30T05:30:59;-0.50;99.90
73939;DHT22;62291;47.554;8.504;2024-01-30T05:33:25;-0.50;99.90
73939;DHT22;62291;47.554;8.504;2024-01-30T05:35:50;-0.40;99.90
73939;DHT22;62291;47.554;8.504;2024-01-30T05:38:19;-0.40;99.90
73939;DHT22;62291;47.554;8.504;2024-01-30T05:40:45;-0.40;99.90
73939;DHT22;62291;47.554;8.504;2024-01-30T05:43:11;-0.50;99.90
73939;DHT22;62291;47.554;8.504;2024-01-30T05:45:37;-0.40;99.90
73939;DHT22;62291;47.554;8.504;2024-01-30T05:48:03;-0.40;99.90
73939;DHT22;62291;47.554;8.504;2024-01-30T05:50:28;-0.40;99.90
73939;DHT22;62291;47.554;8.504;2024-01-30T05:52:55;-0.30;99.90
73939;DHT22;62291;47.554;8.504;2024-01-30T05:55:21;-0.30;99.90
73939;DHT22;62291;47.554;8.504;2024-01-30T05:57:46;-0.30;99.90
73939;DHT22;62291;47.554;8.504;2024-01-30T06:00:12;-0.20;99.90
73939;DHT22;62291;47.554;8.504;2024-01-30T06:02:38;-0.20;99.90
73939;DHT22;62291;47.554;8.504;2024-01-30T06:05:04;-0.20;99.90
73939;DHT22;62291;47.554;8.504;2024-01-30T06:07:31;-0.20;99.90
73939;DHT22;62291;47.554;8.504;2024-01-30T06:09:56;-0.30;99.90
73939;DHT22;62291;47.554;8.504;2024-01-30T06:12:22;-0.40;99.90
73939;DHT22;62291;47.554;8.504;2024-01-30T06:14:48;-0.30;99.90
73939;DHT22;62291;47.554;8.504;2024-01-30T06:17:14;-0.40;99.90
73939;DHT22;62291;47.554;8.504;2024-01-30T06:19:39;-0.40;99.90
73939;DHT22;62291;47.554;8.504;2024-01-30T06:22:05;-0.30;99.90
73939;DHT22;62291;47.554;8.504;2024-01-30T06:24:31;-0.40;99.90
73939;DHT22;62291;47.554;8.504;2024-01-30T06:26:56;-0.40;99.90
73939;DHT22;62291;47.554;8.504;2024-01-30T06:29:22;-0.30;99.90
73939;DHT22;62291;47.554;8.504;2024-01-30T06:31:50;-0.40;99.90
73939;DHT22;62291;47.554;8.504;2024-01-30T06:34:16;-0.40;99.90
73939;DHT22;62291;47.554;8.504;2024-01-30T06:36:41;-0.40;99.90
73939;DHT22;62291;47.554;8.504;2024-01-30T06:39:07;-0.30;99.90
73939;DHT22;62291;47.554;8.504;2024-01-30T06:41:33;-0.20;99.90
73939;DHT22;62291;47.554;8.504;2024-01-30T06:43:59;-0.30;99.90
73939;DHT22;62291;47.554;8.504;2024-01-30T06:46:25;-0.30;99.90
73939;DHT22;62291;47.554;8.504;2024-01-30T06:48:50;-0.30;99.90
73939;DHT22;62291;47.554;8.504;2024-01-30T06:51:16;-0.40;99.90
73939;DHT22;62291;47.554;8.504;2024-01-30T06:53:42;-0.40;99.90
73939;DHT22;62291;47.554;8.504;2024-01-30T06:56:07;-0.40;99.90
73939;DHT22;62291;47.554;8.504;2024-01-30T06:58:33;-0.40;99.90
73939;DHT22;62291;47.554;8.504;2024-01-30T07:00:59;-0.50;99.90
73939;DHT22;62291;47.554;8.504;2024-01-30T07:03:24;-0.50;99.90
73939;DHT22;62291;47.554;8.504;2024-01-30T07:05:50;-0.60;99.90
73939;DHT22;62291;47.554;8.504;2024-01-30T07:08:17;-0.70;99.90
73939;DHT22;62291;47.554;8.504;2024-01-30T07:10:43;-0.80;99.90
73939;DHT22;62291;47.554;8.504;2024-01-30T07:13:10;-0.80;99.90
73939;DHT22;62291;47.554;8.504;2024-01-30T07:15:36;-0.80;99.90
73939;DHT22;62291;47.554;8.504;2024-01-30T07:18:05;-0.60;99.90
73939;DHT22;62291;47.554;8.504;2024-01-30T07:20:31;-0.50;99.90
73939;DHT22;62291;47.554;8.504;2024-01-30T07:23:00;-0.50;99.90
73939;DHT22;62291;47.554;8.504;2024-01-30T07:25:26;-0.60;99.90
73939;DHT22;62291;47.554;8.504;2024-01-30T07:27:53;-0.50;99.90
73939;DHT22;62291;47.554;8.504;2024-01-30T07:30:19;-0.50;99.90
73939;DHT22;62291;47.554;8.504;2024-01-30T07:32:46;-0.40;99.90
73939;DHT22;62291;47.554;8.504;2024-01-30T07:35:12;-0.30;99.90
73939;DHT22;62291;47.554;8.504;2024-01-30T07:37:37;-0.30;99.90
73939;DHT22;62291;47.554;8.504;2024-01-30T07:40:04;-0.20;99.90
73939;DHT22;62291;47.554;8.504;2024-01-30T07:42:30;-0.20;99.90
73939;DHT22;62291;47.554;8.504;2024-01-30T07:44:55;-0.20;99.90
73939;DHT22;62291;47.554;8.504;2024-01-30T07:47:21;-0.10;99.90
73939;DHT22;62291;47.554;8.504;2024-01-30T07:49:47;0.00;99.90
73939;DHT22;62291;47.554;8.504;2024-01-30T07:52:13;0.00;99.90
73939;DHT22;62291;47.554;8.504;2024-01-30T07:54:57;0.10;99.90
73939;DHT22;62291;47.554;8.504;2024-01-30T07:57:23;0.20;99.90
73939;DHT22;62291;47.554;8.504;2024-01-30T07:59:49;0.10;99.90
73939;DHT22;62291;47.554;8.504;2024-01-30T08:02:14;0.20;99.90
73939;DHT22;62291;47.554;8.504;2024-01-30T08:04:40;0.20;99.90
73939;DHT22;62291;47.554;8.504;2024-01-30T08:07:06;0.30;99.90
73939;DHT22;62291;47.554;8.504;2024-01-30T08:09:32;0.30;99.90
73939;DHT22;62291;47.554;8.504;2024-01-30T08:11:57;0.30;99.90
73939;DHT22;62291;47.554;8.504;2024-01-30T08:14:23;0.20;99.90
73939;DHT22;62291;47.554;8.504;2024-01-30T08:16:49;0.20;99.90
73939;DHT22;62291;47.554;8.504;2024-01-30T08:19:15;0.20;99.90
73939;DHT22;62291;47.554;8.504;2024-01-30T08:21:41;0.30;99.90
73939;DHT22;62291;47.554;8.504;2024-01-30T08:24:07;0.30;99.90
73939;DHT22;62291;47.554;8.504;2024-01-30T08:26:33;0.30;99.90
73939;DHT22;62291;47.554;8.504;2024-01-30T08:28:59;0.40;99.90
73939;DHT22;62291;47.554;8.504;2024-01-30T08:31:25;0.50;99.90
73939;DHT22;62291;47.554;8.504;2024-01-30T08:33:50;0.70;99.90
73939;DHT22;62291;47.554;8.504;2024-01-30T08:36:17;0.90;99.90
73939;DHT22;62291;47.554;8.504;2024-01-30T08:38:42;0.90;99.90
73939;DHT22;62291;47.554;8.504;2024-01-30T08:41:08;1.00;99.90
73939;DHT22;62291;47.554;8.504;2024-01-30T08:43:34;0.80;99.90
73939;DHT22;62291;47.554;8.504;2024-01-30T08:46:00;0.70;99.90
73939;DHT22;62291;47.554;8.504;2024-01-30T08:48:26;0.90;99.90
73939;DHT22;62291;47.554;8.504;2024-01-30T08:50:52;0.90;99.90
73939;DHT22;62291;47.554;8.504;2024-01-30T08:53:18;1.10;99.90
73939;DHT22;62291;47.554;8.504;2024-01-30T08:55:44;1.30;99.90
73939;DHT22;62291;47.554;8.504;2024-01-30T08:58:09;1.50;99.90
73939;DHT22;62291;47.554;8.504;2024-01-30T09:00:35;1.40;99.90
73939;DHT22;62291;47.554;8.504;2024-01-30T09:03:01;1.50;99.90
73939;DHT22;62291;47.554;8.504;2024-01-30T09:05:27;1.50;99.90
73939;DHT22;62291;47.554;8.504;2024-01-30T09:07:53;1.60;99.90
73939;DHT22;62291;47.554;8.504;2024-01-30T09:10:19;1.80;99.90
73939;DHT22;62291;47.554;8.504;2024-01-30T09:12:46;2.00;99.90
73939;DHT22;62291;47.554;8.504;2024-01-30T09:15:12;1.90;99.90
73939;DHT22;62291;47.554;8.504;2024-01-30T09:17:37;2.00;99.90
73939;DHT22;62291;47.554;8.504;2024-01-30T09:20:03;2.10;99.90
73939;DHT22;62291;47.554;8.504;2024-01-30T09:22:29;2.20;99.90
73939;DHT22;62291;47.554;8.504;2024-01-30T09:24:55;2.30;99.90
73939;DHT22;62291;47.554;8.504;2024-01-30T09:27:20;2.50;99.90
73939;DHT22;62291;47.554;8.504;2024-01-30T09:29:46;2.60;99.90
73939;DHT22;62291;47.554;8.504;2024-01-30T09:32:11;2.60;99.90
73939;DHT22;62291;47.554;8.504;2024-01-30T09:34:37;2.90;99.90
73939;DHT22;62291;47.554;8.504;2024-01-30T09:37:04;2.90;99.90
73939;DHT22;62291;47.554;8.504;2024-01-30T09:39:30;2.80;99.90
73939;DHT22;62291;47.554;8.504;2024-01-30T09:42:12;2.80;99.90
73939;DHT22;62291;47.554;8.504;2024-01-30T09:44:43;2.90;99.90
73939;DHT22;62291;47.554;8.504;2024-01-30T09:47:09;2.70;99.90
73939;DHT22;62291;47.554;8.504;2024-01-30T09:49:36;2.60;99.90
73939;DHT22;62291;47.554;8.504;2024-01-30T09:52:05;2.60;99.90
73939;DHT22;62291;47.554;8.504;2024-01-30T09:54:31;2.60;99.90
73939;DHT22;62291;47.554;8.504;2024-01-30T09:56:57;2.70;99.90
73939;DHT22;62291;47.554;8.504;2024-01-30T09:59:23;2.90;99.90
73939;DHT22;62291;47.554;8.504;2024-01-30T10:01:50;2.80;99.90
73939;DHT22;62291;47.554;8.504;2024-01-30T10:04:17;2.70;99.90
73939;DHT22;62291;47.554;8.504;2024-01-30T10:06:42;2.50;99.90
73939;DHT22;62291;47.554;8.504;2024-01-30T10:09:08;2.50;99.90
73939;DHT22;62291;47.554;8.504;2024-01-30T10:11:35;2.50;99.90
73939;DHT22;62291;47.554;8.504;2024-01-30T10:14:01;2.60;99.90
73939;DHT22;62291;47.554;8.504;2024-01-30T10:16:27;2.50;99.90
73939;DHT22;62291;47.554;8.504;2024-01-30T10:18:52;2.60;99.90
73939;DHT22;62291;47.554;8.504;2024-01-30T10:21:18;2.40;99.90
73939;DHT22;62291;47.554;8.504;2024-01-30T10:23:44;2.40;99.90
73939;DHT22;62291;47.554;8.504;2024-01-30T10:26:12;2.60;99.90
73939;DHT22;62291;47.554;8.504;2024-01-30T10:28:39;2.70;99.90
73939;DHT22;62291;47.554;8.504;2024-01-30T10:31:04;2.70;99.90
73939;DHT22;62291;47.554;8.504;2024-01-30T10:33:31;2.70;99.90
73939;DHT22;62291;47.554;8.504;2024-01-30T10:36:04;2.90;99.90
73939;DHT22;62291;47.554;8.504;2024-01-30T10:38:32;3.20;99.90
73939;DHT22;62291;47.554;8.504;2024-01-30T10:40:59;3.30;99.90
73939;DHT22;62291;47.554;8.504;2024-01-30T10:43:41;3.50;99.90
73939;DHT22;62291;47.554;8.504;2024-01-30T10:46:20;3.90;99.90
73939;DHT22;62291;47.554;8.504;2024-01-30T10:48:56;4.20;99.90
73939;DHT22;62291;47.554;8.504;2024-01-30T10:51:24;4.40;99.90
73939;DHT22;62291;47.554;8.504;2024-01-30T10:53:52;4.60;99.90
73939;DHT22;62291;47.554;8.504;2024-01-30T10:56:21;4.50;99.90
73939;DHT22;62291;47.554;8.504;2024-01-30T10:58:51;4.50;99.90
73939;DHT22;62291;47.554;8.504;2024-01-30T11:01:22;4.70;99.90
73939;DHT22;62291;47.554;8.504;2024-01-30T11:03:55;4.90;99.90
73939;DHT22;62291;47.554;8.504;2024-01-30T11:06:23;5.10;99.90
73939;DHT22;62291;47.554;8.504;2024-01-30T11:09:05;5.40;99.90
73939;DHT22;62291;47.554;8.504;2024-01-30T11:11:51;5.60;99.90
73939;DHT22;62291;47.554;8.504;2024-01-30T11:14:22;5.60;99.90
73939;DHT22;62291;47.554;8.504;2024-01-30T11:16:49;5.50;99.90
73939;DHT22;62291;47.554;8.504;2024-01-30T11:19:14;5.50;99.90
73939;DHT22;62291;47.554;8.504;2024-01-30T11:21:43;5.40;99.90
73939;DHT22;62291;47.554;8.504;2024-01-30T11:24:09;5.10;99.90
73939;DHT22;62291;47.554;8.504;2024-01-30T11:26:35;4.90;99.90
73939;DHT22;62291;47.554;8.504;2024-01-30T11:29:03;4.90;99.90
73939;DHT22;62291;47.554;8.504;2024-01-30T11:31:30;5.20;99.90
73939;DHT22;62291;47.554;8.504;2024-01-30T11:33:56;5.40;99.90
73939;DHT22;62291;47.554;8.504;2024-01-30T11:36:25;5.20;99.90
73939;DHT22;62291;47.554;8.504;2024-01-30T11:38:52;5.30;99.90
73939;DHT22;62291;47.554;8.504;2024-01-30T11:41:18;5.20;99.90
73939;DHT22;62291;47.554;8.504;2024-01-30T11:43:52;5.20;99.90
73939;DHT22;62291;47.554;8.504;2024-01-30T11:46:18;5.50;99.90
73939;DHT22;62291;47.554;8.504;2024-01-30T11:48:43;5.80;99.90
73939;DHT22;62291;47.554;8.504;2024-01-30T11:51:09;6.10;99.90
73939;DHT22;62291;47.554;8.504;2024-01-30T11:53:35;6.30;99.90
73939;DHT22;62291;47.554;8.504;2024-01-30T11:56:01;6.20;99.90
73939;DHT22;62291;47.554;8.504;2024-01-30T11:58:26;6.20;99.90
73939;DHT22;62291;47.554;8.504;2024-01-30T12:00:55;6.20;99.90
73939;DHT22;62291;47.554;8.504;2024-01-30T12:03:21;6.00;99.90
73939;DHT22;62291;47.554;8.504;2024-01-30T12:05:55;6.20;99.90
73939;DHT22;62291;47.554;8.504;2024-01-30T12:08:21;6.60;99.90
73939;DHT22;62291;47.554;8.504;2024-01-30T12:10:57;6.90;99.90
73939;DHT22;62291;47.554;8.504;2024-01-30T12:13:31;7.10;99.90
73939;DHT22;62291;47.554;8.504;2024-01-30T12:15:57;7.40;99.90
73939;DHT22;62291;47.554;8.504;2024-01-30T12:18:22;7.60;99.90
73939;DHT22;62291;47.554;8.504;2024-01-30T12:21:01;7.70;99.90
73939;DHT22;62291;47.554;8.504;2024-01-30T12:23:30;7.60;99.90
73939;DHT22;62291;47.554;8.504;2024-01-30T12:25:55;7.30;99.90
73939;DHT22;62291;47.554;8.504;2024-01-30T12:28:21;7.40;99.90
73939;DHT22;62291;47.554;8.504;2024-01-30T12:30:47;7.30;99.90
73939;DHT22;62291;47.554;8.504;2024-01-30T12:33:16;7.40;99.90
73939;DHT22;62291;47.554;8.504;2024-01-30T12:35:47;7.50;99.90
73939;DHT22;62291;47.554;8.504;2024-01-30T12:38:16;7.40;99.90
73939;DHT22;62291;47.554;8.504;2024-01-30T12:40:41;7.40;99.90
73939;DHT22;62291;47.554;8.504;2024-01-30T12:43:07;7.20;99.90
73939;DHT22;62291;47.554;8.504;2024-01-30T12:45:33;7.20;99.90
73939;DHT22;62291;47.554;8.504;2024-01-30T12:47:59;7.20;99.90
73939;DHT22;62291;47.554;8.504;2024-01-30T12:50:24;7.30;99.90
73939;DHT22;62291;47.554;8.504;2024-01-30T12:52:50;7.30;99.90
73939;DHT22;62291;47.554;8.504;2024-01-30T12:55:16;7.20;99.90
73939;DHT22;62291;47.554;8.504;2024-01-30T12:57:43;7.20;99.90
73939;DHT22;62291;47.554;8.504;2024-01-30T13:00:08;7.20;99.90
73939;DHT22;62291;47.554;8.504;2024-01-30T13:02:35;7.30;99.90
73939;DHT22;62291;47.554;8.504;2024-01-30T13:05:05;7.40;99.90
73939;DHT22;62291;47.554;8.504;2024-01-30T13:07:31;7.50;99.90
73939;DHT22;62291;47.554;8.504;2024-01-30T13:09:57;7.60;99.90
73939;DHT22;62291;47.554;8.504;2024-01-30T13:12:28;7.70;99.90
73939;DHT22;62291;47.554;8.504;2024-01-30T13:14:54;8.00;99.90
73939;DHT22;62291;47.554;8.504;2024-01-30T13:17:20;7.90;99.90
73939;DHT22;62291;47.554;8.504;2024-01-30T13:19:46;7.90;99.90
73939;DHT22;62291;47.554;8.504;2024-01-30T13:22:12;8.10;99.90
73939;DHT22;62291;47.554;8.504;2024-01-30T13:24:37;8.30;99.90
73939;DHT22;62291;47.554;8.504;2024-01-30T13:27:03;8.40;99.90
73939;DHT22;62291;47.554;8.504;2024-01-30T13:29:31;8.60;99.90
73939;DHT22;62291;47.554;8.504;2024-01-30T13:31:57;8.60;99.90
73939;DHT22;62291;47.554;8.504;2024-01-30T13:34:22;8.70;99.90
73939;DHT22;62291;47.554;8.504;2024-01-30T13:36:48;8.80;99.90
73939;DHT22;62291;47.554;8.504;2024-01-30T13:39:14;8.70;99.90
73939;DHT22;62291;47.554;8.504;2024-01-30T13:41:42;8.70;99.90
73939;DHT22;62291;47.554;8.504;2024-01-30T13:44:08;8.60;99.90
73939;DHT22;62291;47.554;8.504;2024-01-30T13:46:35;8.40;99.90
73939;DHT22;62291;47.554;8.504;2024-01-30T13:49:01;8.50;99.90
73939;DHT22;62291;47.554;8.504;2024-01-30T13:51:27;8.60;99.90
73939;DHT22;62291;47.554;8.504;2024-01-30T13:53:52;8.70;99.90
73939;DHT22;62291;47.554;8.504;2024-01-30T13:56:19;8.70;99.90
73939;DHT22;62291;47.554;8.504;2024-01-30T13:58:45;8.70;99.90
73939;DHT22;62291;47.554;8.504;2024-01-30T14:01:11;8.60;99.90
73939;DHT22;62291;47.554;8.504;2024-01-30T14:03:36;8.60;99.90
73939;DHT22;62291;47.554;8.504;2024-01-30T14:06:02;8.50;99.90
73939;DHT22;62291;47.554;8.504;2024-01-30T14:08:28;8.30;99.90
73939;DHT22;62291;47.554;8.504;2024-01-30T14:10:54;8.20;99.90
73939;DHT22;62291;47.554;8.504;2024-01-30T14:13:21;8.00;99.90
73939;DHT22;62291;47.554;8.504;2024-01-30T14:15:48;8.00;99.90
73939;DHT22;62291;47.554;8.504;2024-01-30T14:18:15;7.90;99.90
73939;DHT22;62291;47.554;8.504;2024-01-30T14:20:41;7.90;99.90
73939;DHT22;62291;47.554;8.504;2024-01-30T14:23:06;8.00;99.90
73939;DHT22;62291;47.554;8.504;2024-01-30T14:25:32;8.00;99.90
73939;DHT22;62291;47.554;8.504;2024-01-30T14:27:58;8.10;99.90
73939;DHT22;62291;47.554;8.504;2024-01-30T14:30:24;8.10;99.90
73939;DHT22;62291;47.554;8.504;2024-01-30T14:32:49;8.00;99.90
73939;DHT22;62291;47.554;8.504;2024-01-30T14:35:15;8.10;99.90
73939;DHT22;62291;47.554;8.504;2024-01-30T14:37:41;8.10;99.90
73939;DHT22;62291;47.554;8.504;2024-01-30T14:40:08;8.20;99.90
73939;DHT22;62291;47.554;8.504;2024-01-30T14:42:34;8.10;99.90
73939;DHT22;62291;47.554;8.504;2024-01-30T14:45:01;8.00;99.90
73939;DHT22;62291;47.554;8.504;2024-01-30T14:47:28;7.90;99.90
73939;DHT22;62291;47.554;8.504;2024-01-30T14:49:53;7.80;99.90
73939;DHT22;62291;47.554;8.504;2024-01-30T14:52:19;7.80;99.90
73939;DHT22;62291;47.554;8.504;2024-01-30T14:54:45;7.90;99.90
73939;DHT22;62291;47.554;8.504;2024-01-30T14:57:10;7.90;99.90
73939;DHT22;62291;47.554;8.504;2024-01-30T14:59:36;7.80;99.90
73939;DHT22;62291;47.554;8.504;2024-01-30T15:02:02;7.70;99.90
73939;DHT22;62291;47.554;8.504;2024-01-30T15:04:28;7.60;99.90
73939;DHT22;62291;47.554;8.504;2024-01-30T15:06:54;7.60;99.90
73939;DHT22;62291;47.554;8.504;2024-01-30T15:09:19;7.70;99.90
73939;DHT22;62291;47.554;8.504;2024-01-30T15:11:48;7.50;99.90
73939;DHT22;62291;47.554;8.504;2024-01-30T15:14:15;7.40;99.90
73939;DHT22;62291;47.554;8.504;2024-01-30T15:16:40;7.30;99.90
73939;DHT22;62291;47.554;8.504;2024-01-30T15:19:06;7.30;99.90
73939;DHT22;62291;47.554;8.504;2024-01-30T15:21:32;7.30;99.90
73939;DHT22;62291;47.554;8.504;2024-01-30T15:23:57;7.40;99.90
73939;DHT22;62291;47.554;8.504;2024-01-30T15:26:23;7.30;99.90
73939;DHT22;62291;47.554;8.504;2024-01-30T15:28:50;7.30;99.90
73939;DHT22;62291;47.554;8.504;2024-01-30T15:31:16;7.20;99.90
73939;DHT22;62291;47.554;8.504;2024-01-30T15:33:41;7.10;99.90
73939;DHT22;62291;47.554;8.504;2024-01-30T15:36:08;7.10;99.90
73939;DHT22;62291;47.554;8.504;2024-01-30T15:38:34;7.10;99.90